aviador You're here:

KDLF Decoded Metar

DEL RIO in TX, USA
Report Time2017-11-18 12:55:00
UTC Time2017-11-18 13:57:35
Flight Rules ifr IFR
WindCalm
Visibility9999 m
Phenomena:N/A
Clouds:Overcast 005 Hf
Expected CloudBase > 400 ft AGL from Temp-Dew spread
Ceiling500 ft
Temp18°C (ISA +5)
Dew Point17°C (94% RH)
QNH1012 hPa
Density Alt1,985 ft
Elevation1,083 ft
Report Wrong Elevation
Raw Report
KDLF 181255Z 00000KT 10SM OVC005 18/17 A2988 RMK AO2A SLP110
T01790174=

Extra information for KDLF:More info

Metar Taf Metar & Taf Last 4 Metars F.Rules Stats Wind Profile Meteogram Temp Stats Airport Information Weather charts Add Link Nearby VenuesMetar ALERT Operation Metar Decoded Social comments

AIRNAV info for KDLF